sensor_id;sensor_type;location;lat;lon;timestamp;P1;durP1;ratioP1;P2;durP2;ratioP2
59294;SDS011;45067;44.654;20.200;2022-08-21T00:00:50;4.78;;;3.33;;
59294;SDS011;45067;44.654;20.200;2022-08-21T00:03:17;5.25;;;3.08;;
59294;SDS011;45067;44.654;20.200;2022-08-21T00:05:46;6.43;;;3.60;;
59294;SDS011;45067;44.654;20.200;2022-08-21T00:08:12;5.93;;;3.45;;
59294;SDS011;45067;44.654;20.200;2022-08-21T00:10:39;5.60;;;3.08;;
59294;SDS011;45067;44.654;20.200;2022-08-21T00:13:05;5.40;;;2.75;;
59294;SDS011;45067;44.654;20.200;2022-08-21T00:15:33;5.97;;;3.25;;
59294;SDS011;45067;44.654;20.200;2022-08-21T00:17:59;5.50;;;3.20;;
59294;SDS011;45067;44.654;20.200;2022-08-21T00:20:25;5.93;;;3.78;;
59294;SDS011;45067;44.654;20.200;2022-08-21T00:22:51;5.00;;;3.53;;
59294;SDS011;45067;44.654;20.200;2022-08-21T00:25:18;7.68;;;4.28;;
59294;SDS011;45067;44.654;20.200;2022-08-21T00:27:45;7.00;;;4.13;;
59294;SDS011;45067;44.654;20.200;2022-08-21T00:30:12;6.28;;;3.42;;
59294;SDS011;45067;44.654;20.200;2022-08-21T00:32:39;6.80;;;4.00;;
59294;SDS011;45067;44.654;20.200;2022-08-21T00:37:41;35.80;;;26.27;;
59294;SDS011;45067;44.654;20.200;2022-08-21T00:40:09;27.75;;;19.70;;
59294;SDS011;45067;44.654;20.200;2022-08-21T00:42:36;16.48;;;10.02;;
59294;SDS011;45067;44.654;20.200;2022-08-21T00:45:02;6.18;;;4.18;;
59294;SDS011;45067;44.654;20.200;2022-08-21T00:47:28;6.55;;;4.15;;
59294;SDS011;45067;44.654;20.200;2022-08-21T00:49:54;8.93;;;5.93;;
59294;SDS011;45067;44.654;20.200;2022-08-21T00:52:22;5.28;;;3.95;;
59294;SDS011;45067;44.654;20.200;2022-08-21T00:54:50;7.43;;;4.10;;
59294;SDS011;45067;44.654;20.200;2022-08-21T00:57:22;7.07;;;3.78;;
59294;SDS011;45067;44.654;20.200;2022-08-21T00:59:50;6.63;;;3.85;;
59294;SDS011;45067;44.654;20.200;2022-08-21T01:02:17;4.93;;;3.58;;
59294;SDS011;45067;44.654;20.200;2022-08-21T01:04:45;4.90;;;3.47;;
59294;SDS011;45067;44.654;20.200;2022-08-21T01:07:11;6.90;;;4.18;;
59294;SDS011;45067;44.654;20.200;2022-08-21T01:12:07;6.63;;;4.03;;
59294;SDS011;45067;44.654;20.200;2022-08-21T01:14:34;5.78;;;3.92;;
59294;SDS011;45067;44.654;20.200;2022-08-21T01:17:01;6.63;;;3.97;;
59294;SDS011;45067;44.654;20.200;2022-08-21T01:19:28;6.88;;;3.85;;
59294;SDS011;45067;44.654;20.200;2022-08-21T01:21:54;7.80;;;4.15;;
59294;SDS011;45067;44.654;20.200;2022-08-21T01:24:20;6.95;;;4.30;;
59294;SDS011;45067;44.654;20.200;2022-08-21T01:26:47;6.05;;;4.00;;
59294;SDS011;45067;44.654;20.200;2022-08-21T01:31:45;7.60;;;4.45;;
59294;SDS011;45067;44.654;20.200;2022-08-21T01:34:11;8.43;;;4.53;;
59294;SDS011;45067;44.654;20.200;2022-08-21T01:36:38;9.82;;;3.90;;
59294;SDS011;45067;44.654;20.200;2022-08-21T01:39:05;5.57;;;3.33;;
59294;SDS011;45067;44.654;20.200;2022-08-21T01:41:31;6.20;;;3.47;;
59294;SDS011;45067;44.654;20.200;2022-08-21T01:43:57;6.63;;;3.20;;
59294;SDS011;45067;44.654;20.200;2022-08-21T01:46:23;7.35;;;3.08;;
59294;SDS011;45067;44.654;20.200;2022-08-21T01:48:49;4.45;;;2.70;;
59294;SDS011;45067;44.654;20.200;2022-08-21T01:51:16;4.85;;;2.55;;
59294;SDS011;45067;44.654;20.200;2022-08-21T01:53:42;4.28;;;3.08;;
59294;SDS011;45067;44.654;20.200;2022-08-21T01:56:10;5.70;;;2.90;;
59294;SDS011;45067;44.654;20.200;2022-08-21T01:58:36;5.88;;;3.13;;
59294;SDS011;45067;44.654;20.200;2022-08-21T02:01:02;8.27;;;4.20;;
59294;SDS011;45067;44.654;20.200;2022-08-21T02:03:29;5.75;;;2.90;;
59294;SDS011;45067;44.654;20.200;2022-08-21T02:05:55;5.32;;;3.13;;
59294;SDS011;45067;44.654;20.200;2022-08-21T02:08:22;5.78;;;3.40;;
59294;SDS011;45067;44.654;20.200;2022-08-21T02:10:48;5.70;;;3.42;;
59294;SDS011;45067;44.654;20.200;2022-08-21T02:13:15;5.43;;;3.20;;
59294;SDS011;45067;44.654;20.200;2022-08-21T02:15:41;5.85;;;3.30;;
59294;SDS011;45067;44.654;20.200;2022-08-21T02:18:07;5.63;;;3.30;;
59294;SDS011;45067;44.654;20.200;2022-08-21T02:20:35;6.35;;;3.53;;
59294;SDS011;45067;44.654;20.200;2022-08-21T02:23:01;4.78;;;3.20;;
59294;SDS011;45067;44.654;20.200;2022-08-21T02:25:28;6.47;;;4.00;;
59294;SDS011;45067;44.654;20.200;2022-08-21T02:27:54;5.28;;;3.15;;
59294;SDS011;45067;44.654;20.200;2022-08-21T02:30:22;5.63;;;3.63;;
59294;SDS011;45067;44.654;20.200;2022-08-21T02:32:48;6.88;;;3.90;;
59294;SDS011;45067;44.654;20.200;2022-08-21T02:35:15;5.95;;;3.25;;
59294;SDS011;45067;44.654;20.200;2022-08-21T02:40:13;10.20;;;4.30;;
59294;SDS011;45067;44.654;20.200;2022-08-21T02:42:39;6.30;;;4.10;;
59294;SDS011;45067;44.654;20.200;2022-08-21T02:45:06;8.27;;;4.00;;
59294;SDS011;45067;44.654;20.200;2022-08-21T02:47:33;6.63;;;4.50;;
59294;SDS011;45067;44.654;20.200;2022-08-21T02:49:59;7.65;;;4.97;;
59294;SDS011;45067;44.654;20.200;2022-08-21T02:52:25;10.50;;;5.80;;
59294;SDS011;45067;44.654;20.200;2022-08-21T02:54:51;10.00;;;5.38;;
59294;SDS011;45067;44.654;20.200;2022-08-21T02:57:17;8.23;;;5.43;;
59294;SDS011;45067;44.654;20.200;2022-08-21T02:59:43;8.43;;;5.53;;
59294;SDS011;45067;44.654;20.200;2022-08-21T03:02:09;8.82;;;5.55;;
59294;SDS011;45067;44.654;20.200;2022-08-21T03:04:36;8.85;;;4.90;;
59294;SDS011;45067;44.654;20.200;2022-08-21T03:07:03;9.60;;;4.90;;
59294;SDS011;45067;44.654;20.200;2022-08-21T03:09:29;7.85;;;5.40;;
59294;SDS011;45067;44.654;20.200;2022-08-21T03:11:55;8.55;;;5.43;;
59294;SDS011;45067;44.654;20.200;2022-08-21T03:14:21;8.07;;;4.88;;
59294;SDS011;45067;44.654;20.200;2022-08-21T03:16:47;9.90;;;5.22;;
59294;SDS011;45067;44.654;20.200;2022-08-21T03:19:13;8.18;;;5.65;;
59294;SDS011;45067;44.654;20.200;2022-08-21T03:21:39;9.82;;;5.00;;
59294;SDS011;45067;44.654;20.200;2022-08-21T03:24:05;9.63;;;5.47;;
59294;SDS011;45067;44.654;20.200;2022-08-21T03:26:32;9.57;;;5.72;;
59294;SDS011;45067;44.654;20.200;2022-08-21T03:28:58;10.30;;;5.70;;
59294;SDS011;45067;44.654;20.200;2022-08-21T03:31:24;11.48;;;6.57;;
59294;SDS011;45067;44.654;20.200;2022-08-21T03:33:55;11.65;;;6.63;;
59294;SDS011;45067;44.654;20.200;2022-08-21T03:36:21;8.07;;;6.28;;
59294;SDS011;45067;44.654;20.200;2022-08-21T03:38:48;9.95;;;7.13;;
59294;SDS011;45067;44.654;20.200;2022-08-21T03:41:14;10.52;;;7.30;;
59294;SDS011;45067;44.654;20.200;2022-08-21T03:43:40;10.30;;;6.40;;
59294;SDS011;45067;44.654;20.200;2022-08-21T03:46:06;10.02;;;7.38;;
59294;SDS011;45067;44.654;20.200;2022-08-21T03:48:33;11.45;;;7.47;;
59294;SDS011;45067;44.654;20.200;2022-08-21T03:50:59;10.55;;;8.10;;
59294;SDS011;45067;44.654;20.200;2022-08-21T03:53:25;11.55;;;8.32;;
59294;SDS011;45067;44.654;20.200;2022-08-21T03:55:52;12.95;;;8.23;;
59294;SDS011;45067;44.654;20.200;2022-08-21T03:58:19;15.15;;;9.00;;
59294;SDS011;45067;44.654;20.200;2022-08-21T04:00:51;14.20;;;9.43;;
59294;SDS011;45067;44.654;20.200;2022-08-21T04:03:19;11.18;;;9.20;;
59294;SDS011;45067;44.654;20.200;2022-08-21T04:05:45;11.35;;;8.63;;
59294;SDS011;45067;44.654;20.200;2022-08-21T04:08:12;12.77;;;9.30;;
59294;SDS011;45067;44.654;20.200;2022-08-21T04:10:38;12.77;;;8.88;;
59294;SDS011;45067;44.654;20.200;2022-08-21T04:13:05;11.43;;;8.27;;
59294;SDS011;45067;44.654;20.200;2022-08-21T04:15:32;13.15;;;9.38;;
59294;SDS011;45067;44.654;20.200;2022-08-21T04:17:58;12.80;;;8.60;;
59294;SDS011;45067;44.654;20.200;2022-08-21T04:20:24;15.32;;;9.20;;
59294;SDS011;45067;44.654;20.200;2022-08-21T04:22:51;11.45;;;9.15;;
59294;SDS011;45067;44.654;20.200;2022-08-21T04:25:19;13.95;;;8.05;;
59294;SDS011;45067;44.654;20.200;2022-08-21T04:27:45;10.43;;;7.60;;
59294;SDS011;45067;44.654;20.200;2022-08-21T04:30:13;13.63;;;8.23;;
59294;SDS011;45067;44.654;20.200;2022-08-21T04:32:41;10.32;;;8.27;;
59294;SDS011;45067;44.654;20.200;2022-08-21T04:35:09;11.77;;;8.00;;
59294;SDS011;45067;44.654;20.200;2022-08-21T04:37:36;10.35;;;7.85;;
59294;SDS011;45067;44.654;20.200;2022-08-21T04:40:02;12.10;;;7.85;;
59294;SDS011;45067;44.654;20.200;2022-08-21T04:42:29;9.98;;;7.05;;
59294;SDS011;45067;44.654;20.200;2022-08-21T04:44:55;11.02;;;7.38;;
59294;SDS011;45067;44.654;20.200;2022-08-21T04:47:22;8.95;;;6.95;;
59294;SDS011;45067;44.654;20.200;2022-08-21T04:49:49;11.75;;;7.20;;
59294;SDS011;45067;44.654;20.200;2022-08-21T04:52:16;13.23;;;7.68;;
59294;SDS011;45067;44.654;20.200;2022-08-21T04:54:43;11.70;;;7.05;;
59294;SDS011;45067;44.654;20.200;2022-08-21T04:57:10;10.32;;;6.85;;
59294;SDS011;45067;44.654;20.200;2022-08-21T04:59:39;12.25;;;7.68;;
59294;SDS011;45067;44.654;20.200;2022-08-21T05:02:09;9.15;;;7.20;;
59294;SDS011;45067;44.654;20.200;2022-08-21T05:04:36;11.57;;;7.70;;
59294;SDS011;45067;44.654;20.200;2022-08-21T05:07:03;8.98;;;6.72;;
59294;SDS011;45067;44.654;20.200;2022-08-21T05:09:31;12.82;;;7.32;;
59294;SDS011;45067;44.654;20.200;2022-08-21T05:11:57;16.90;;;7.25;;
59294;SDS011;45067;44.654;20.200;2022-08-21T05:14:23;12.77;;;7.00;;
59294;SDS011;45067;44.654;20.200;2022-08-21T05:16:52;13.68;;;7.15;;
59294;SDS011;45067;44.654;20.200;2022-08-21T05:19:21;10.48;;;7.03;;
59294;SDS011;45067;44.654;20.200;2022-08-21T05:22:04;10.20;;;7.00;;
59294;SDS011;45067;44.654;20.200;2022-08-21T05:24:31;13.50;;;7.40;;
59294;SDS011;45067;44.654;20.200;2022-08-21T05:26:57;10.10;;;6.60;;
59294;SDS011;45067;44.654;20.200;2022-08-21T05:29:23;11.18;;;6.70;;
59294;SDS011;45067;44.654;20.200;2022-08-21T05:31:50;11.20;;;6.75;;
59294;SDS011;45067;44.654;20.200;2022-08-21T05:34:19;10.68;;;7.20;;
59294;SDS011;45067;44.654;20.200;2022-08-21T05:39:12;16.77;;;6.35;;
59294;SDS011;45067;44.654;20.200;2022-08-21T05:41:38;12.40;;;6.60;;
59294;SDS011;45067;44.654;20.200;2022-08-21T05:44:04;9.70;;;6.40;;
59294;SDS011;45067;44.654;20.200;2022-08-21T05:46:30;9.35;;;6.50;;
59294;SDS011;45067;44.654;20.200;2022-08-21T05:48:56;13.20;;;6.28;;
59294;SDS011;45067;44.654;20.200;2022-08-21T05:51:22;8.70;;;5.72;;
59294;SDS011;45067;44.654;20.200;2022-08-21T05:53:54;11.20;;;6.90;;
59294;SDS011;45067;44.654;20.200;2022-08-21T05:56:20;8.95;;;6.60;;
59294;SDS011;45067;44.654;20.200;2022-08-21T05:58:47;10.45;;;6.65;;
59294;SDS011;45067;44.654;20.200;2022-08-21T06:01:13;10.73;;;7.10;;
59294;SDS011;45067;44.654;20.200;2022-08-21T06:03:40;9.85;;;7.05;;
59294;SDS011;45067;44.654;20.200;2022-08-21T06:06:06;9.73;;;6.45;;
59294;SDS011;45067;44.654;20.200;2022-08-21T06:08:32;9.25;;;7.68;;
59294;SDS011;45067;44.654;20.200;2022-08-21T06:10:59;10.85;;;7.47;;
59294;SDS011;45067;44.654;20.200;2022-08-21T06:13:26;10.05;;;7.32;;
59294;SDS011;45067;44.654;20.200;2022-08-21T06:16:03;9.65;;;7.40;;
59294;SDS011;45067;44.654;20.200;2022-08-21T06:18:29;9.98;;;7.68;;
59294;SDS011;45067;44.654;20.200;2022-08-21T06:20:55;9.20;;;7.00;;
59294;SDS011;45067;44.654;20.200;2022-08-21T06:23:22;10.73;;;7.50;;
59294;SDS011;45067;44.654;20.200;2022-08-21T06:25:48;10.63;;;6.85;;
59294;SDS011;45067;44.654;20.200;2022-08-21T06:28:14;10.07;;;7.40;;
59294;SDS011;45067;44.654;20.200;2022-08-21T06:30:40;11.75;;;7.32;;
59294;SDS011;45067;44.654;20.200;2022-08-21T06:33:06;9.02;;;7.25;;
59294;SDS011;45067;44.654;20.200;2022-08-21T06:35:32;11.95;;;7.00;;
59294;SDS011;45067;44.654;20.200;2022-08-21T06:37:59;16.02;;;7.72;;
59294;SDS011;45067;44.654;20.200;2022-08-21T06:40:28;10.85;;;7.43;;
59294;SDS011;45067;44.654;20.200;2022-08-21T06:42:54;9.60;;;7.20;;
59294;SDS011;45067;44.654;20.200;2022-08-21T06:45:20;12.50;;;7.25;;
59294;SDS011;45067;44.654;20.200;2022-08-21T06:47:48;10.90;;;7.53;;
59294;SDS011;45067;44.654;20.200;2022-08-21T06:50:14;10.63;;;7.68;;
59294;SDS011;45067;44.654;20.200;2022-08-21T06:52:40;10.10;;;7.53;;
59294;SDS011;45067;44.654;20.200;2022-08-21T06:55:08;12.00;;;7.90;;
59294;SDS011;45067;44.654;20.200;2022-08-21T06:57:34;10.32;;;7.50;;
59294;SDS011;45067;44.654;20.200;2022-08-21T07:00:02;9.95;;;6.78;;
59294;SDS011;45067;44.654;20.200;2022-08-21T07:02:29;10.55;;;7.05;;
59294;SDS011;45067;44.654;20.200;2022-08-21T07:04:55;9.68;;;6.15;;
59294;SDS011;45067;44.654;20.200;2022-08-21T07:07:21;14.80;;;7.55;;
59294;SDS011;45067;44.654;20.200;2022-08-21T07:09:47;12.60;;;7.80;;
59294;SDS011;45067;44.654;20.200;2022-08-21T07:12:14;12.27;;;6.72;;
59294;SDS011;45067;44.654;20.200;2022-08-21T07:14:40;10.68;;;7.30;;
59294;SDS011;45067;44.654;20.200;2022-08-21T07:17:07;11.73;;;8.10;;
59294;SDS011;45067;44.654;20.200;2022-08-21T07:19:33;10.88;;;7.15;;
59294;SDS011;45067;44.654;20.200;2022-08-21T07:22:00;9.98;;;6.70;;
59294;SDS011;45067;44.654;20.200;2022-08-21T07:24:26;12.48;;;7.05;;
59294;SDS011;45067;44.654;20.200;2022-08-21T07:26:52;9.10;;;6.13;;
59294;SDS011;45067;44.654;20.200;2022-08-21T07:29:18;9.32;;;6.35;;
59294;SDS011;45067;44.654;20.200;2022-08-21T07:31:45;10.10;;;7.43;;
59294;SDS011;45067;44.654;20.200;2022-08-21T07:34:11;8.63;;;6.30;;
59294;SDS011;45067;44.654;20.200;2022-08-21T07:36:37;8.52;;;7.13;;
59294;SDS011;45067;44.654;20.200;2022-08-21T07:39:03;9.15;;;7.07;;
59294;SDS011;45067;44.654;20.200;2022-08-21T07:41:29;9.73;;;6.50;;
59294;SDS011;45067;44.654;20.200;2022-08-21T07:43:58;10.70;;;6.68;;
59294;SDS011;45067;44.654;20.200;2022-08-21T07:46:25;10.52;;;7.35;;
59294;SDS011;45067;44.654;20.200;2022-08-21T07:48:51;10.48;;;7.53;;
59294;SDS011;45067;44.654;20.200;2022-08-21T07:51:18;12.13;;;8.38;;
59294;SDS011;45067;44.654;20.200;2022-08-21T07:53:50;11.93;;;8.15;;
59294;SDS011;45067;44.654;20.200;2022-08-21T07:56:17;13.63;;;9.45;;
59294;SDS011;45067;44.654;20.200;2022-08-21T07:58:43;10.57;;;7.95;;
59294;SDS011;45067;44.654;20.200;2022-08-21T08:01:09;11.73;;;8.93;;
59294;SDS011;45067;44.654;20.200;2022-08-21T08:03:35;12.48;;;10.38;;
59294;SDS011;45067;44.654;20.200;2022-08-21T08:06:02;12.18;;;9.40;;
59294;SDS011;45067;44.654;20.200;2022-08-21T08:08:29;22.17;;;9.98;;
59294;SDS011;45067;44.654;20.200;2022-08-21T08:10:56;17.70;;;12.80;;
59294;SDS011;45067;44.654;20.200;2022-08-21T08:13:22;11.63;;;9.80;;
59294;SDS011;45067;44.654;20.200;2022-08-21T08:15:48;14.13;;;10.07;;
59294;SDS011;45067;44.654;20.200;2022-08-21T08:18:15;14.07;;;10.85;;
59294;SDS011;45067;44.654;20.200;2022-08-21T08:20:41;13.45;;;10.98;;
59294;SDS011;45067;44.654;20.200;2022-08-21T08:23:11;15.68;;;11.90;;
59294;SDS011;45067;44.654;20.200;2022-08-21T08:25:37;20.02;;;13.68;;
59294;SDS011;45067;44.654;20.200;2022-08-21T08:28:04;18.30;;;13.50;;
59294;SDS011;45067;44.654;20.200;2022-08-21T08:30:33;11.43;;;9.73;;
59294;SDS011;45067;44.654;20.200;2022-08-21T08:33:00;12.18;;;10.57;;
59294;SDS011;45067;44.654;20.200;2022-08-21T08:35:26;17.92;;;11.60;;
59294;SDS011;45067;44.654;20.200;2022-08-21T08:37:53;16.10;;;11.25;;
59294;SDS011;45067;44.654;20.200;2022-08-21T08:43:10;15.65;;;11.48;;
59294;SDS011;45067;44.654;20.200;2022-08-21T08:45:37;10.13;;;7.57;;
59294;SDS011;45067;44.654;20.200;2022-08-21T08:48:06;8.00;;;4.05;;
59294;SDS011;45067;44.654;20.200;2022-08-21T08:50:46;6.38;;;3.92;;
59294;SDS011;45067;44.654;20.200;2022-08-21T08:53:25;5.70;;;2.25;;
59294;SDS011;45067;44.654;20.200;2022-08-21T08:55:54;3.47;;;1.90;;
59294;SDS011;45067;44.654;20.200;2022-08-21T08:58:25;4.70;;;1.58;;
59294;SDS011;45067;44.654;20.200;2022-08-21T09:00:53;5.60;;;2.30;;
59294;SDS011;45067;44.654;20.200;2022-08-21T09:03:20;4.10;;;1.80;;
59294;SDS011;45067;44.654;20.200;2022-08-21T09:08:52;4.47;;;2.03;;
59294;SDS011;45067;44.654;20.200;2022-08-21T09:11:26;4.05;;;2.30;;
59294;SDS011;45067;44.654;20.200;2022-08-21T09:21:28;5.38;;;1.90;;
59294;SDS011;45067;44.654;20.200;2022-08-21T09:23:57;4.18;;;2.60;;
59294;SDS011;45067;44.654;20.200;2022-08-21T09:26:26;3.20;;;2.00;;
59294;SDS011;45067;44.654;20.200;2022-08-21T09:28:56;3.72;;;2.00;;
59294;SDS011;45067;44.654;20.200;2022-08-21T09:33:50;4.20;;;2.58;;
59294;SDS011;45067;44.654;20.200;2022-08-21T09:36:28;5.95;;;3.35;;
59294;SDS011;45067;44.654;20.200;2022-08-21T09:38:56;7.38;;;3.60;;
59294;SDS011;45067;44.654;20.200;2022-08-21T09:41:27;5.88;;;3.95;;
59294;SDS011;45067;44.654;20.200;2022-08-21T09:43:54;6.95;;;5.18;;
59294;SDS011;45067;44.654;20.200;2022-08-21T09:46:21;7.55;;;4.18;;
59294;SDS011;45067;44.654;20.200;2022-08-21T09:48:52;6.43;;;4.72;;
59294;SDS011;45067;44.654;20.200;2022-08-21T09:53:49;5.53;;;3.28;;
59294;SDS011;45067;44.654;20.200;2022-08-21T09:56:18;3.88;;;3.35;;
59294;SDS011;45067;44.654;20.200;2022-08-21T09:59:14;4.90;;;2.85;;
59294;SDS011;45067;44.654;20.200;2022-08-21T10:01:42;3.63;;;2.90;;
59294;SDS011;45067;44.654;20.200;2022-08-21T10:04:09;3.70;;;3.13;;
59294;SDS011;45067;44.654;20.200;2022-08-21T10:06:35;5.43;;;3.40;;
59294;SDS011;45067;44.654;20.200;2022-08-21T10:11:34;4.88;;;3.50;;
59294;SDS011;45067;44.654;20.200;2022-08-21T10:19:16;5.68;;;3.83;;
59294;SDS011;45067;44.654;20.200;2022-08-21T10:27:05;7.20;;;4.47;;
59294;SDS011;45067;44.654;20.200;2022-08-21T10:37:16;8.15;;;5.82;;
59294;SDS011;45067;44.654;20.200;2022-08-21T10:39:56;8.50;;;5.93;;
59294;SDS011;45067;44.654;20.200;2022-08-21T10:45:36;9.30;;;6.00;;
59294;SDS011;45067;44.654;20.200;2022-08-21T10:48:06;8.88;;;7.15;;
59294;SDS011;45067;44.654;20.200;2022-08-21T10:50:42;9.35;;;7.45;;
59294;SDS011;45067;44.654;20.200;2022-08-21T10:56:35;8.65;;;6.35;;
59294;SDS011;45067;44.654;20.200;2022-08-21T10:59:16;8.77;;;6.53;;
59294;SDS011;45067;44.654;20.200;2022-08-21T11:04:48;6.43;;;5.03;;
59294;SDS011;45067;44.654;20.200;2022-08-21T11:07:19;5.80;;;5.00;;
59294;SDS011;45067;44.654;20.200;2022-08-21T11:09:46;6.20;;;5.28;;
59294;SDS011;45067;44.654;20.200;2022-08-21T11:12:20;7.00;;;5.20;;
59294;SDS011;45067;44.654;20.200;2022-08-21T11:15:36;7.88;;;5.38;;
59294;SDS011;45067;44.654;20.200;2022-08-21T11:17:54;7.20;;;5.40;;
59294;SDS011;45067;44.654;20.200;2022-08-21T11:20:33;8.35;;;5.38;;
59294;SDS011;45067;44.654;20.200;2022-08-21T11:23:18;8.18;;;5.60;;
59294;SDS011;45067;44.654;20.200;2022-08-21T11:25:49;6.00;;;4.75;;
59294;SDS011;45067;44.654;20.200;2022-08-21T11:28:24;6.00;;;4.28;;
59294;SDS011;45067;44.654;20.200;2022-08-21T11:36:33;7.03;;;4.82;;
59294;SDS011;45067;44.654;20.200;2022-08-21T11:44:03;8.18;;;5.18;;
59294;SDS011;45067;44.654;20.200;2022-08-21T11:51:39;7.88;;;5.20;;
59294;SDS011;45067;44.654;20.200;2022-08-21T11:56:45;8.27;;;4.20;;
59294;SDS011;45067;44.654;20.200;2022-08-21T11:59:17;6.07;;;4.10;;
59294;SDS011;45067;44.654;20.200;2022-08-21T12:01:46;5.93;;;4.10;;
59294;SDS011;45067;44.654;20.200;2022-08-21T12:06:51;6.22;;;5.10;;
59294;SDS011;45067;44.654;20.200;2022-08-21T12:11:50;9.48;;;6.03;;
59294;SDS011;45067;44.654;20.200;2022-08-21T12:14:34;10.10;;;5.57;;
59294;SDS011;45067;44.654;20.200;2022-08-21T12:17:04;5.82;;;4.32;;
59294;SDS011;45067;44.654;20.200;2022-08-21T12:19:31;6.57;;;4.53;;
59294;SDS011;45067;44.654;20.200;2022-08-21T12:26:53;5.57;;;4.43;;
59294;SDS011;45067;44.654;20.200;2022-08-21T12:29:25;6.90;;;4.97;;
59294;SDS011;45067;44.654;20.200;2022-08-21T12:31:53;5.78;;;4.35;;
59294;SDS011;45067;44.654;20.200;2022-08-21T12:34:21;5.95;;;4.03;;
59294;SDS011;45067;44.654;20.200;2022-08-21T12:36:53;4.70;;;3.67;;
59294;SDS011;45067;44.654;20.200;2022-08-21T12:39:24;5.65;;;4.13;;
59294;SDS011;45067;44.654;20.200;2022-08-21T12:42:03;5.88;;;4.53;;
59294;SDS011;45067;44.654;20.200;2022-08-21T12:44:35;6.33;;;4.77;;
59294;SDS011;45067;44.654;20.200;2022-08-21T12:47:04;7.70;;;5.05;;
59294;SDS011;45067;44.654;20.200;2022-08-21T12:52:02;6.70;;;4.97;;
59294;SDS011;45067;44.654;20.200;2022-08-21T12:54:30;7.47;;;5.38;;
59294;SDS011;45067;44.654;20.200;2022-08-21T12:56:59;5.00;;;3.88;;
59294;SDS011;45067;44.654;20.200;2022-08-21T12:59:26;5.78;;;4.30;;
59294;SDS011;45067;44.654;20.200;2022-08-21T13:01:52;4.68;;;3.13;;
59294;SDS011;45067;44.654;20.200;2022-08-21T13:04:26;2.63;;;2.42;;
59294;SDS011;45067;44.654;20.200;2022-08-21T13:06:57;4.22;;;2.55;;
59294;SDS011;45067;44.654;20.200;2022-08-21T13:09:27;3.40;;;2.60;;
59294;SDS011;45067;44.654;20.200;2022-08-21T13:11:54;4.05;;;2.80;;
59294;SDS011;45067;44.654;20.200;2022-08-21T13:17:05;3.30;;;2.88;;
59294;SDS011;45067;44.654;20.200;2022-08-21T13:19:32;5.30;;;3.33;;
59294;SDS011;45067;44.654;20.200;2022-08-21T13:21:59;5.07;;;3.30;;
59294;SDS011;45067;44.654;20.200;2022-08-21T13:24:27;3.97;;;2.90;;
59294;SDS011;45067;44.654;20.200;2022-08-21T13:26:54;3.67;;;2.90;;
59294;SDS011;45067;44.654;20.200;2022-08-21T13:29:22;5.28;;;2.30;;
59294;SDS011;45067;44.654;20.200;2022-08-21T13:34:15;5.05;;;2.70;;
59294;SDS011;45067;44.654;20.200;2022-08-21T13:36:42;4.13;;;2.65;;
59294;SDS011;45067;44.654;20.200;2022-08-21T13:39:09;3.85;;;2.80;;
59294;SDS011;45067;44.654;20.200;2022-08-21T13:41:37;5.10;;;2.67;;
59294;SDS011;45067;44.654;20.200;2022-08-21T13:44:06;3.25;;;2.63;;
59294;SDS011;45067;44.654;20.200;2022-08-21T13:46:39;3.70;;;2.45;;
59294;SDS011;45067;44.654;20.200;2022-08-21T13:49:05;2.85;;;2.45;;
59294;SDS011;45067;44.654;20.200;2022-08-21T13:51:32;5.00;;;2.72;;
59294;SDS011;45067;44.654;20.200;2022-08-21T13:53:59;3.72;;;2.92;;
59294;SDS011;45067;44.654;20.200;2022-08-21T13:56:32;4.15;;;3.08;;
59294;SDS011;45067;44.654;20.200;2022-08-21T13:59:01;5.43;;;3.22;;
59294;SDS011;45067;44.654;20.200;2022-08-21T14:01:30;5.13;;;3.95;;
59294;SDS011;45067;44.654;20.200;2022-08-21T14:03:59;4.65;;;3.83;;
59294;SDS011;45067;44.654;20.200;2022-08-21T14:08:55;5.03;;;4.03;;
59294;SDS011;45067;44.654;20.200;2022-08-21T14:11:22;5.20;;;3.95;;
59294;SDS011;45067;44.654;20.200;2022-08-21T14:13:49;5.45;;;3.88;;
59294;SDS011;45067;44.654;20.200;2022-08-21T14:16:24;5.47;;;3.97;;
59294;SDS011;45067;44.654;20.200;2022-08-21T14:21:26;5.25;;;4.00;;
59294;SDS011;45067;44.654;20.200;2022-08-21T14:24:12;5.80;;;4.10;;
59294;SDS011;45067;44.654;20.200;2022-08-21T14:26:46;4.53;;;3.92;;
59294;SDS011;45067;44.654;20.200;2022-08-21T14:29:15;4.53;;;3.70;;
59294;SDS011;45067;44.654;20.200;2022-08-21T14:31:41;4.10;;;3.53;;
59294;SDS011;45067;44.654;20.200;2022-08-21T14:34:09;5.88;;;4.05;;
59294;SDS011;45067;44.654;20.200;2022-08-21T14:36:36;4.13;;;2.95;;
59294;SDS011;45067;44.654;20.200;2022-08-21T14:39:04;4.93;;;3.50;;
59294;SDS011;45067;44.654;20.200;2022-08-21T14:41:31;5.55;;;4.00;;
59294;SDS011;45067;44.654;20.200;2022-08-21T14:43:57;7.25;;;4.05;;
59294;SDS011;45067;44.654;20.200;2022-08-21T14:46:24;5.13;;;3.40;;
59294;SDS011;45067;44.654;20.200;2022-08-21T14:48:51;5.10;;;4.10;;
59294;SDS011;45067;44.654;20.200;2022-08-21T14:51:17;5.10;;;3.55;;
59294;SDS011;45067;44.654;20.200;2022-08-21T14:53:43;5.55;;;3.38;;
59294;SDS011;45067;44.654;20.200;2022-08-21T14:56:13;5.78;;;3.92;;
59294;SDS011;45067;44.654;20.200;2022-08-21T14:58:41;5.53;;;4.13;;
59294;SDS011;45067;44.654;20.200;2022-08-21T15:01:08;6.22;;;4.63;;
59294;SDS011;45067;44.654;20.200;2022-08-21T15:03:35;4.43;;;3.40;;
59294;SDS011;45067;44.654;20.200;2022-08-21T15:06:02;6.93;;;5.03;;
59294;SDS011;45067;44.654;20.200;2022-08-21T15:08:28;5.45;;;4.43;;
59294;SDS011;45067;44.654;20.200;2022-08-21T15:10:54;5.80;;;4.80;;
59294;SDS011;45067;44.654;20.200;2022-08-21T15:13:21;7.55;;;5.65;;
59294;SDS011;45067;44.654;20.200;2022-08-21T15:15:48;6.82;;;5.28;;
59294;SDS011;45067;44.654;20.200;2022-08-21T15:18:15;7.32;;;6.28;;
59294;SDS011;45067;44.654;20.200;2022-08-21T15:20:41;6.15;;;5.35;;
59294;SDS011;45067;44.654;20.200;2022-08-21T15:23:08;5.95;;;5.30;;
59294;SDS011;45067;44.654;20.200;2022-08-21T15:25:34;8.45;;;6.20;;
59294;SDS011;45067;44.654;20.200;2022-08-21T15:28:01;8.77;;;6.28;;
59294;SDS011;45067;44.654;20.200;2022-08-21T15:30:36;7.78;;;5.68;;
59294;SDS011;45067;44.654;20.200;2022-08-21T15:33:06;9.38;;;6.63;;
59294;SDS011;45067;44.654;20.200;2022-08-21T15:35:32;9.02;;;6.03;;
59294;SDS011;45067;44.654;20.200;2022-08-21T15:37:58;10.50;;;6.00;;
59294;SDS011;45067;44.654;20.200;2022-08-21T15:40:24;9.80;;;7.32;;
59294;SDS011;45067;44.654;20.200;2022-08-21T15:42:51;8.55;;;7.50;;
59294;SDS011;45067;44.654;20.200;2022-08-21T15:45:18;8.25;;;6.93;;
59294;SDS011;45067;44.654;20.200;2022-08-21T15:47:45;9.48;;;7.10;;
59294;SDS011;45067;44.654;20.200;2022-08-21T15:50:12;9.68;;;6.97;;
59294;SDS011;45067;44.654;20.200;2022-08-21T15:52:39;9.20;;;7.55;;
59294;SDS011;45067;44.654;20.200;2022-08-21T15:55:05;8.82;;;7.32;;
59294;SDS011;45067;44.654;20.200;2022-08-21T15:57:32;11.38;;;7.93;;
59294;SDS011;45067;44.654;20.200;2022-08-21T16:00:00;8.80;;;6.88;;
59294;SDS011;45067;44.654;20.200;2022-08-21T16:02:36;9.23;;;7.57;;
59294;SDS011;45067;44.654;20.200;2022-08-21T16:05:03;9.10;;;6.88;;
59294;SDS011;45067;44.654;20.200;2022-08-21T16:07:29;11.90;;;7.80;;
59294;SDS011;45067;44.654;20.200;2022-08-21T16:09:55;10.45;;;7.82;;
59294;SDS011;45067;44.654;20.200;2022-08-21T16:12:23;8.70;;;7.80;;
59294;SDS011;45067;44.654;20.200;2022-08-21T16:14:50;9.30;;;7.75;;
59294;SDS011;45067;44.654;20.200;2022-08-21T16:17:17;9.02;;;7.35;;